Time;durP1;ratioP1;P1;durP2;ratioP2;P2;SDS_P1;SDS_P2;PMS_P1;PMS_P2;Temp;Humidity;BMP_temperature;BMP_pressure;BME280_temperature;BME280_humidity;BME280_pressure;Samples;Min_cycle;Max_cycle;Signal;HPM_P1;HPM_P2
2022/01/07 00:02:03;;;;;;;;;20.00;16.00;;;;;5.04;79.45;100969.53;5077371;28;46233;-68
2022/01/07 00:04:31;;;;;;;;;22.25;15.50;;;;;5.02;79.39;100968.69;5077094;28;45240;-68
2022/01/07 00:06:56;;;;;;;;;18.50;17.25;;;;;5.00;80.05;100964.41;5077257;28;45433;-68
2022/01/07 00:09:22;;;;;;;;;15.25;14.00;;;;;4.94;80.63;100963.59;5077483;28;45456;-68
2022/01/07 00:11:47;;;;;;;;;15.00;14.25;;;;;4.82;80.31;100948.94;5077632;27;46086;-69
2022/01/07 00:14:12;;;;;;;;;20.00;15.00;;;;;4.86;81.18;100956.72;5069200;28;45508;-67
2022/01/07 00:16:39;;;;;;;;;12.75;11.75;;;;;4.85;81.28;100961.06;5057943;28;45341;-69
2022/01/07 00:19:04;;;;;;;;;17.00;13.75;;;;;4.77;81.50;100942.00;5040407;28;45367;-67
2022/01/07 00:21:30;;;;;;;;;18.25;14.25;;;;;4.68;81.83;100935.19;5039114;28;45311;-69
2022/01/07 00:23:55;;;;;;;;;18.00;13.75;;;;;4.62;83.02;100930.03;5039024;28;45193;-67
2022/01/07 00:26:21;;;;;;;;;19.50;15.00;;;;;4.58;83.28;100928.31;5036967;28;45344;-69
2022/01/07 00:28:46;;;;;;;;;15.50;13.75;;;;;4.53;83.90;100928.34;5036923;28;45423;-68
2022/01/07 00:31:12;;;;;;;;;14.75;12.75;;;;;4.48;84.36;100910.19;5036500;28;45249;-67
2022/01/07 00:33:37;;;;;;;;;14.00;14.00;;;;;4.43;84.42;100914.56;5036518;28;45247;-66
2022/01/07 00:36:03;;;;;;;;;18.50;13.75;;;;;4.43;85.53;100909.38;5037891;28;45252;-68
2022/01/07 00:38:30;;;;;;;;;19.25;15.75;;;;;4.39;85.80;100912.88;5039487;28;45614;-67
2022/01/07 00:40:56;;;;;;;;;15.00;14.00;;;;;4.32;85.36;100898.19;5049845;28;45367;-68
2022/01/07 00:43:22;;;;;;;;;18.50;13.00;;;;;4.25;85.96;100899.97;5044242;28;45178;-68
2022/01/07 00:45:47;;;;;;;;;17.00;12.00;;;;;4.19;86.60;100906.06;5038383;28;45382;-68
2022/01/07 00:48:13;;;;;;;;;14.75;14.00;;;;;4.10;87.57;100895.75;5037262;28;45341;-68
2022/01/07 00:50:38;;;;;;;;;14.75;13.00;;;;;4.06;87.27;100888.84;5038421;28;45281;-67
2022/01/07 00:53:04;;;;;;;;;3.25;3.00;;;;;4.00;87.06;100894.97;5035906;28;45373;-67
2022/01/07 00:55:29;;;;;;;;;17.00;13.00;;;;;4.00;88.04;100905.38;5036088;28;45427;-66
2022/01/07 00:57:55;;;;;;;;;17.75;12.50;;;;;3.98;88.37;100898.44;5036444;28;45534;-68
2022/01/07 01:00:24;;;;;;;;;13.25;11.75;;;;;3.98;87.98;100891.50;5035767;28;45407;-68
2022/01/07 01:02:49;;;;;;;;;13.75;11.50;;;;;3.97;88.32;100897.59;5017937;28;45293;-68
2022/01/07 01:05:15;;;;;;;;;12.00;10.75;;;;;3.98;88.34;100895.84;5036128;28;45356;-67
2022/01/07 01:07:42;;;;;;;;;16.50;11.50;;;;;3.95;88.78;100897.59;5040111;28;45543;-67
2022/01/07 01:10:08;;;;;;;;;10.50;10.50;;;;;3.92;88.96;100892.41;5037441;28;45342;-66
2022/01/07 01:12:36;;;;;;;;;17.50;12.00;;;;;3.92;89.41;100892.41;5035500;28;45330;-67
2022/01/07 01:15:03;;;;;;;;;13.00;11.25;;;;;3.93;89.04;100881.13;5036608;28;45442;-67
2022/01/07 01:17:28;;;;;;;;;15.25;11.00;;;;;3.92;88.96;100892.41;5039265;28;45239;-69
2022/01/07 01:19:53;;;;;;;;;13.25;11.00;;;;;3.70;89.19;100841.41;5036920;28;45461;-67
2022/01/07 01:22:19;;;;;;;;;12.25;10.25;;;;;3.95;88.55;100886.34;5036016;28;45232;-68
2022/01/07 01:24:44;;;;;;;;;13.75;13.50;;;;;3.98;89.17;100875.00;5036071;28;45252;-68
2022/01/07 01:27:09;;;;;;;;;12.25;9.50;;;;;3.99;88.40;100884.56;5036107;28;45578;-67
2022/01/07 01:29:35;;;;;;;;;17.25;16.75;;;;;3.92;88.48;100875.94;5017436;28;47523;-68
2022/01/07 01:32:00;;;;;;;;;14.00;11.75;;;;;3.94;88.31;100856.81;5036262;28;45285;-70
2022/01/07 01:34:26;;;;;;;;;14.25;13.00;;;;;3.93;89.15;100870.72;5018672;28;45434;-68
2022/01/07 01:36:51;;;;;;;;;14.75;8.75;;;;;4.04;88.70;100867.16;5040406;28;45454;-67
2022/01/07 01:39:17;;;;;;;;;14.00;14.00;;;;;4.02;88.75;100880.19;5038532;28;46439;-68
2022/01/07 01:41:43;;;;;;;;;16.25;12.75;;;;;4.03;88.57;100878.44;5038777;28;44816;-68
2022/01/07 01:44:09;;;;;;;;;13.25;12.25;;;;;4.03;88.41;100874.13;5037999;28;45356;-67
2022/01/07 01:46:35;;;;;;;;;12.75;11.00;;;;;4.03;88.14;100874.13;5042129;28;45491;-68
2022/01/07 01:49:00;;;;;;;;;17.00;13.75;;;;;4.04;88.62;100870.63;5041304;28;45269;-68
2022/01/07 01:51:26;;;;;;;;;18.25;12.50;;;;;4.04;88.81;100868.03;5042824;28;45185;-67
2022/01/07 01:53:51;;;;;;;;;13.00;10.75;;;;;4.02;88.51;100882.81;5046889;28;45179;-67
2022/01/07 01:56:16;;;;;;;;;16.50;12.25;;;;;4.04;88.74;100880.16;5047762;28;45300;-68
2022/01/07 01:58:42;;;;;;;;;16.00;11.75;;;;;4.02;88.98;100884.53;5043806;28;45371;-68
2022/01/07 02:01:08;;;;;;;;;14.00;11.00;;;;;4.04;88.54;100862.81;5044964;28;45380;-67
2022/01/07 02:03:33;;;;;;;;;17.50;13.25;;;;;4.05;89.22;100867.16;5022993;28;45375;-67
2022/01/07 02:05:58;;;;;;;;;14.00;12.00;;;;;4.06;88.41;100873.22;5039819;28;45244;-68
2022/01/07 02:08:24;;;;;;;;;11.75;11.50;;;;;4.08;88.78;100867.13;5039151;28;45407;-68
2022/01/07 02:10:50;;;;;;;;;12.00;12.00;;;;;4.14;88.78;100865.34;5020911;28;45413;-68
2022/01/07 02:13:16;;;;;;;;;12.75;12.00;;;;;4.17;88.47;100866.16;5038618;28;45444;-67
2022/01/07 02:15:42;;;;;;;;;14.75;12.75;;;;;4.16;88.55;100855.78;5039197;28;45496;-67
2022/01/07 02:18:08;;;;;;;;;14.00;13.50;;;;;4.15;88.48;100862.72;5038493;28;45396;-68
2022/01/07 02:20:33;;;;;;;;;18.50;12.25;;;;;4.17;88.52;100860.97;5039073;28;45381;-67
2022/01/07 02:22:59;;;;;;;;;14.25;12.50;;;;;4.19;88.64;100853.16;5038824;28;45320;-67
2022/01/07 02:25:26;;;;;;;;;13.75;13.25;;;;;3.99;89.34;100817.75;5040997;28;45501;-68
2022/01/07 02:27:52;;;;;;;;;14.00;13.00;;;;;4.20;88.53;100849.66;5022123;28;47515;-67
2022/01/07 02:30:24;;;;;;;;;18.00;14.25;;;;;4.21;88.92;100843.59;5039104;28;45278;-67
2022/01/07 02:32:50;;;;;;;;;13.75;11.50;;;;;4.19;88.85;100822.75;5044738;28;45308;-67
2022/01/07 02:35:18;;;;;;;;;15.00;13.50;;;;;4.28;89.14;100844.41;5042964;28;45217;-67
2022/01/07 02:37:43;;;;;;;;;14.50;13.00;;;;;4.28;89.82;100831.38;5038319;28;46145;-67
2022/01/07 02:40:10;;;;;;;;;14.75;12.50;;;;;4.33;89.83;100824.38;5041005;28;45441;-70
2022/01/07 02:42:36;;;;;;;;;15.50;11.25;;;;;4.36;89.00;100838.22;5038345;28;45429;-69
2022/01/07 02:45:05;;;;;;;;;13.75;11.50;;;;;4.41;89.08;100832.97;5040717;28;45518;-68
2022/01/07 02:47:39;;;;;;;;;12.75;10.50;;;;;4.41;89.36;100812.13;5037908;28;46055;-68
2022/01/07 02:50:05;;;;;;;;;12.25;11.50;;;;;4.44;89.54;100814.72;5038132;28;45305;-68
2022/01/07 02:52:31;;;;;;;;;14.25;12.50;;;;;4.46;89.58;100805.13;5039847;28;45236;-68
2022/01/07 02:54:57;;;;;;;;;14.50;11.75;;;;;4.44;89.17;100812.09;5038045;28;45541;-68
2022/01/07 02:57:23;;;;;;;;;12.75;12.50;;;;;4.44;88.85;100811.22;5038063;28;46295;-67
2022/01/07 02:59:48;;;;;;;;;12.75;11.25;;;;;4.40;89.35;100810.41;5038190;28;45257;-68
2022/01/07 03:02:13;;;;;;;;;13.00;11.00;;;;;4.39;89.03;100813.91;5038807;28;45374;-67
2022/01/07 03:04:39;;;;;;;;;14.00;12.50;;;;;4.40;89.46;100810.41;5044989;28;45642;-68
2022/01/07 03:07:04;;;;;;;;;10.75;8.75;;;;;4.42;88.99;100808.66;5051147;28;45331;-68
2022/01/07 03:09:29;;;;;;;;;11.25;10.75;;;;;4.39;88.96;100800.88;5041342;28;45241;-68
2022/01/07 03:11:55;;;;;;;;;8.25;8.25;;;;;4.42;89.33;100792.16;5037531;28;45748;-68
2022/01/07 03:14:20;;;;;;;;;10.00;9.75;;;;;4.44;89.45;100806.00;5037826;28;45377;-68
2022/01/07 03:16:46;;;;;;;;;9.50;9.50;;;;;4.44;89.58;100800.81;5019943;28;46164;-68
2022/01/07 03:19:11;;;;;;;;;9.75;9.75;;;;;4.48;89.42;100808.59;5038170;28;45285;-67
2022/01/07 03:21:37;;;;;;;;;10.25;9.75;;;;;4.50;89.74;100803.34;5037781;28;45389;-67
2022/01/07 03:24:02;;;;;;;;;14.50;12.00;;;;;4.51;88.89;100811.16;5037592;28;45431;-67
2022/01/07 03:26:28;;;;;;;;;11.50;9.75;;;;;4.56;89.59;100820.66;5039088;28;46157;-67
2022/01/07 03:28:53;;;;;;;;;13.00;8.75;;;;;4.58;89.32;100813.69;5037302;28;45385;-67
2022/01/07 03:31:18;;;;;;;;;13.75;11.25;;;;;4.56;89.06;100787.63;5038467;28;45551;-67
2022/01/07 03:33:44;;;;;;;;;11.25;9.25;;;;;4.59;89.44;100799.78;5039792;28;45220;-68
2022/01/07 03:36:09;;;;;;;;;14.50;11.75;;;;;4.63;88.75;100796.25;5039969;28;45340;-66
2022/01/07 03:38:34;;;;;;;;;12.00;6.75;;;;;4.64;88.57;100797.97;5038988;28;45263;-68
2022/01/07 03:41:00;;;;;;;;;13.00;11.00;;;;;4.62;88.89;100787.56;5038214;28;45670;-68
2022/01/07 03:43:26;;;;;;;;;9.75;7.50;;;;;4.60;88.88;100785.88;5037891;28;45576;-67
2022/01/07 03:45:51;;;;;;;;;6.75;6.50;;;;;4.64;88.52;100796.22;5021578;28;45909;-67
2022/01/07 03:48:16;;;;;;;;;9.25;7.50;;;;;4.60;88.58;100781.50;5036937;28;45443;-67
2022/01/07 03:50:42;;;;;;;;;9.00;7.75;;;;;4.65;88.46;100790.13;5036802;28;45279;-67
2022/01/07 03:53:08;;;;;;;;;13.75;11.50;;;;;4.66;88.31;100780.59;5036909;28;45487;-67
2022/01/07 03:55:34;;;;;;;;;9.00;9.00;;;;;4.67;88.71;100777.94;5036957;28;45305;-68
2022/01/07 03:58:00;;;;;;;;;6.25;4.50;;;;;4.68;88.34;100782.28;5039002;28;45418;-67
2022/01/07 04:00:32;;;;;;;;;11.75;7.75;;;;;4.70;88.48;100784.88;5037144;28;45392;-67
2022/01/07 04:02:58;;;;;;;;;11.50;7.00;;;;;4.72;88.29;100774.41;5038892;28;45280;-67
2022/01/07 04:05:25;;;;;;;;;9.00;9.00;;;;;4.73;88.52;100770.94;5036833;28;46243;-67
2022/01/07 04:07:51;;;;;;;;;7.25;7.25;;;;;4.75;87.93;100771.78;5035621;28;45378;-67
2022/01/07 04:10:16;;;;;;;;;10.25;6.75;;;;;4.77;87.37;100772.63;5037081;28;45513;-67
2022/01/07 04:12:42;;;;;;;;;10.25;7.50;;;;;4.77;87.51;100767.41;5038029;28;45634;-66
2022/01/07 04:15:08;;;;;;;;;11.00;8.00;;;;;4.77;86.88;100763.06;5037272;28;45334;-67
2022/01/07 04:17:40;;;;;;;;;6.00;6.00;;;;;4.77;87.63;100749.16;5036546;28;45399;-66
2022/01/07 04:20:08;;;;;;;;;11.50;7.75;;;;;4.78;87.24;100745.69;5036721;28;45275;-67
2022/01/07 04:22:33;;;;;;;;;8.25;7.00;;;;;4.78;87.33;100753.53;5038448;28;45389;-67
2022/01/07 04:25:01;;;;;;;;;10.00;7.00;;;;;4.79;87.23;100756.09;5036655;28;46084;-66
2022/01/07 04:27:26;;;;;;;;;9.00;8.00;;;;;4.77;87.29;100757.84;5038368;28;45265;-67
2022/01/07 04:29:52;;;;;;;;;9.00;4.25;;;;;4.75;86.98;100754.41;5042368;28;45328;-68
2022/01/07 04:32:18;;;;;;;;;6.00;6.00;;;;;4.80;87.47;100755.19;5039553;28;45199;-67
2022/01/07 04:34:44;;;;;;;;;7.75;7.75;;;;;4.80;87.30;100741.31;5036122;28;45327;-66
2022/01/07 04:37:09;;;;;;;;;6.25;6.25;;;;;4.80;87.17;100750.00;5037799;28;45419;-66
2022/01/07 04:39:35;;;;;;;;;11.50;7.00;;;;;4.82;87.24;100752.59;5036752;28;45410;-67
2022/01/07 04:42:00;;;;;;;;;10.25;7.00;;;;;4.82;87.24;100753.44;5036612;28;45308;-68
2022/01/07 04:44:26;;;;;;;;;7.50;6.75;;;;;4.81;87.03;100753.47;5036522;28;45420;-68
2022/01/07 04:46:51;;;;;;;;;8.75;8.00;;;;;4.82;86.93;100755.19;5037179;28;45491;-66
2022/01/07 04:49:16;;;;;;;;;12.75;8.00;;;;;4.82;87.44;100750.84;5036484;28;45322;-67
2022/01/07 04:51:42;;;;;;;;;7.25;7.00;;;;;4.78;87.21;100748.31;5036284;28;45326;-67
2022/01/07 04:54:07;;;;;;;;;10.00;7.50;;;;;4.86;87.09;100772.53;5018013;28;47230;-67
2022/01/07 04:56:32;;;;;;;;;7.75;6.50;;;;;4.85;87.18;100760.38;5036051;28;45324;-66
2022/01/07 04:58:58;;;;;;;;;8.50;7.00;;;;;4.85;87.61;100760.38;5040328;28;45245;-67
2022/01/07 05:01:23;;;;;;;;;7.25;6.75;;;;;4.91;87.07;100759.41;5038705;28;45573;-68
2022/01/07 05:03:48;;;;;;;;;8.75;5.75;;;;;4.91;87.79;100755.06;5037273;28;46232;-68
2022/01/07 05:08:48;;;;;;;;;10.00;6.00;;;;;4.76;86.44;100734.41;5036148;28;45411;-67
2022/01/07 05:11:13;;;;;;;;;9.25;7.00;;;;;4.80;87.16;100739.56;5036768;28;45334;-67
2022/01/07 05:13:39;;;;;;;;;7.50;5.25;;;;;4.84;87.33;100737.78;5035549;28;46218;-67
2022/01/07 05:16:05;;;;;;;;;11.25;6.00;;;;;4.83;87.27;100744.75;5037540;28;45502;-68
2022/01/07 05:18:31;;;;;;;;;8.50;6.75;;;;;4.82;87.77;100736.97;5039968;28;45273;-67
2022/01/07 05:20:56;;;;;;;;;5.25;5.25;;;;;4.77;87.40;100742.22;5043381;28;45243;-66
2022/01/07 05:23:21;;;;;;;;;5.00;5.00;;;;;4.71;87.80;100736.22;5043436;28;46315;-67
2022/01/07 05:25:47;;;;;;;;;7.00;6.25;;;;;4.64;87.81;100751.06;5042798;28;45369;-69
2022/01/07 05:28:12;;;;;;;;;5.25;4.50;;;;;4.57;87.97;100746.84;5051778;28;45249;-68
2022/01/07 05:30:37;;;;;;;;;8.25;5.50;;;;;4.50;87.48;100748.63;5052027;28;45329;-67
2022/01/07 05:33:03;;;;;;;;;7.00;5.00;;;;;4.44;88.42;100754.81;5048520;28;54185;-66
2022/01/07 05:35:29;;;;;;;;;5.25;5.25;;;;;4.42;89.29;100756.56;5049514;28;45257;-67
2022/01/07 05:37:55;;;;;;;;;8.25;5.00;;;;;4.34;88.57;100745.38;5047396;28;45260;-66
2022/01/07 05:40:20;;;;;;;;;4.75;4.75;;;;;4.31;88.90;100755.81;5046326;28;45439;-67
2022/01/07 05:42:46;;;;;;;;;8.75;6.00;;;;;4.30;88.99;100749.75;5042015;28;45581;-67
2022/01/07 05:45:11;;;;;;;;;5.75;5.75;;;;;4.28;89.08;100743.69;5043128;28;45443;-68
2022/01/07 05:47:36;;;;;;;;;11.50;6.00;;;;;4.31;89.23;100753.22;5041142;28;45398;-68
2022/01/07 05:50:03;;;;;;;;;7.50;4.50;;;;;4.28;89.71;100743.69;5038437;28;45644;-68
2022/01/07 05:52:28;;;;;;;;;6.00;4.00;;;;;4.29;89.50;100754.97;5041765;28;46648;-67
2022/01/07 05:54:53;;;;;;;;;7.25;4.50;;;;;4.29;89.53;100760.19;5045227;28;45312;-67
2022/01/07 05:57:19;;;;;;;;;4.75;3.25;;;;;4.26;89.38;100755.84;5044243;28;44753;-68
2022/01/07 05:59:44;;;;;;;;;7.00;5.00;;;;;4.24;89.21;100752.41;5043039;28;45432;-68
2022/01/07 06:02:09;;;;;;;;;10.75;8.00;;;;;4.23;90.25;100756.75;5039907;28;46357;-67
2022/01/07 06:04:35;;;;;;;;;11.25;6.00;;;;;4.24;89.86;100755.03;5022572;28;45545;-68
2022/01/07 06:07:01;;;;;;;;;9.50;6.00;;;;;4.22;90.16;100760.22;5047183;28;45233;-68
2022/01/07 06:09:27;;;;;;;;;9.25;5.25;;;;;4.24;90.29;100762.81;5039841;28;45729;-67
2022/01/07 06:11:52;;;;;;;;;7.00;5.00;;;;;4.22;90.15;100756.78;5038844;28;45447;-68
2022/01/07 06:14:17;;;;;;;;;9.50;5.00;;;;;4.28;90.49;100755.84;5038538;28;45301;-67
2022/01/07 06:16:43;;;;;;;;;5.25;5.25;;;;;4.29;89.61;100754.97;5020758;28;45437;-66
2022/01/07 06:19:08;;;;;;;;;5.00;5.00;;;;;4.29;90.40;100755.81;5038707;28;45293;-68
2022/01/07 06:21:33;;;;;;;;;9.25;4.25;;;;;4.29;90.05;100762.78;5039295;28;46464;-67
2022/01/07 06:23:59;;;;;;;;;5.25;5.00;;;;;4.34;90.75;100768.81;5042989;28;45329;-66
2022/01/07 06:26:24;;;;;;;;;5.75;5.00;;;;;4.37;90.43;100768.78;5041900;28;45312;-68
2022/01/07 06:28:50;;;;;;;;;6.25;4.25;;;;;4.42;90.66;100773.91;5039055;28;45209;-68
2022/01/07 06:31:15;;;;;;;;;8.00;4.75;;;;;4.46;90.86;100760.84;5041178;28;46363;-68
2022/01/07 06:33:40;;;;;;;;;10.25;7.25;;;;;4.59;90.58;100774.56;5041226;28;45306;-67
2022/01/07 06:36:06;;;;;;;;;7.50;5.50;;;;;4.68;89.62;100758.81;5038087;28;45586;-67
2022/01/07 06:38:31;;;;;;;;;5.00;5.00;;;;;4.77;90.19;100773.50;5038123;28;45514;-68
2022/01/07 06:40:57;;;;;;;;;9.00;9.00;;;;;4.85;90.20;100764.72;5040122;28;46155;-70
2022/01/07 06:43:22;;;;;;;;;11.00;7.00;;;;;4.93;89.54;100762.84;5040962;28;45474;-67
2022/01/07 06:45:47;;;;;;;;;8.50;7.50;;;;;4.99;89.94;100756.72;5041719;28;45903;-68
2022/01/07 06:48:13;;;;;;;;;6.50;6.25;;;;;5.01;89.65;100758.41;5041901;28;45300;-68
2022/01/07 06:50:38;;;;;;;;;5.00;5.00;;;;;5.03;89.28;100755.78;5040527;28;45285;-69
2022/01/07 06:53:04;;;;;;;;;6.25;4.75;;;;;5.04;89.46;100755.75;5041537;28;45458;-69
2022/01/07 06:55:29;;;;;;;;;7.50;6.00;;;;;5.04;89.61;100750.53;5022662;28;45315;-68
2022/01/07 06:57:55;;;;;;;;;9.25;4.25;;;;;5.05;89.71;100747.03;5040584;28;45368;-68
2022/01/07 07:00:21;;;;;;;;;5.00;5.00;;;;;5.11;89.44;100748.69;5039357;28;45305;-67
2022/01/07 07:02:46;;;;;;;;;11.00;6.25;;;;;5.14;89.91;100739.97;5039452;28;45473;-67
2022/01/07 07:05:11;;;;;;;;;8.00;6.00;;;;;5.18;90.22;100752.94;5039507;28;45285;-67
2022/01/07 07:07:37;;;;;;;;;7.75;7.75;;;;;5.22;89.68;100757.22;5040333;28;45504;-68
2022/01/07 07:10:03;;;;;;;;;7.50;6.75;;;;;5.25;89.84;100756.31;5039433;28;45198;-66
2022/01/07 07:12:28;;;;;;;;;7.50;7.00;;;;;5.28;90.18;100761.47;5040508;28;45427;-67
2022/01/07 07:14:53;;;;;;;;;6.75;5.50;;;;;5.31;89.49;100763.19;5042619;28;45404;-66
2022/01/07 07:17:19;;;;;;;;;8.50;6.75;;;;;5.31;89.75;100753.63;5041884;28;45512;-68
2022/01/07 07:19:44;;;;;;;;;11.25;8.00;;;;;5.34;89.89;100764.00;5044134;28;46044;-68
2022/01/07 07:22:10;;;;;;;;;3.75;3.75;;;;;5.39;89.69;100769.16;5040566;28;45431;-68
2022/01/07 07:24:35;;;;;;;;;5.75;5.00;;;;;5.42;89.42;100771.69;5039515;28;45404;-68
2022/01/07 07:27:00;;;;;;;;;13.00;6.00;;;;;5.45;89.26;100768.19;5022426;28;45582;-68
2022/01/07 07:29:25;;;;;;;;;7.75;5.00;;;;;5.48;89.61;100773.38;5039633;28;45379;-66
2022/01/07 07:31:57;;;;;;;;;7.00;6.50;;;;;5.50;89.14;100766.38;5040117;28;45466;-66
2022/01/07 07:34:44;;;;;;;;;10.25;5.00;;;;;5.51;89.88;100765.50;5041350;28;45285;-65
2022/01/07 07:37:13;;;;;;;;;5.00;5.00;;;;;5.53;89.80;100767.16;5041001;28;45511;-64
2022/01/07 07:39:40;;;;;;;;;7.50;7.50;;;;;5.59;89.84;100767.97;5042974;28;45314;-64
2022/01/07 07:42:05;;;;;;;;;8.75;6.50;;;;;5.62;89.65;100778.34;5042762;28;44726;-63
2022/01/07 07:44:31;;;;;;;;;6.75;5.25;;;;;5.56;90.05;100777.56;5022459;28;45371;-62
2022/01/07 07:46:57;;;;;;;;;7.00;5.00;;;;;5.65;89.05;100787.00;5038389;28;45253;-66
2022/01/07 07:49:23;;;;;;;;;8.25;6.00;;;;;5.68;89.57;100788.69;5021025;28;46064;-65
2022/01/07 07:51:49;;;;;;;;;7.75;6.50;;;;;5.67;89.57;100785.22;5038551;28;45236;-65
2022/01/07 07:54:14;;;;;;;;;8.00;5.00;;;;;5.68;89.65;100791.28;5038724;28;45264;-64
2022/01/07 07:56:40;;;;;;;;;6.25;6.00;;;;;5.69;90.51;100796.50;5038523;28;45567;-65
2022/01/07 07:59:05;;;;;;;;;9.25;6.00;;;;;5.70;91.02;100795.63;5038053;28;46160;-65
2022/01/07 08:01:31;;;;;;;;;9.25;7.00;;;;;5.71;90.90;100804.28;5038745;28;45330;-67
2022/01/07 08:03:56;;;;;;;;;9.00;7.00;;;;;5.70;91.48;100807.78;5027347;28;45582;-67
2022/01/07 08:06:21;;;;;;;;;8.00;6.00;;;;;5.67;91.49;100797.41;5052391;28;45306;-65
2022/01/07 08:08:47;;;;;;;;;9.00;6.75;;;;;5.64;92.38;100797.44;5041086;28;47317;-68
2022/01/07 08:11:13;;;;;;;;;8.50;6.75;;;;;5.64;92.38;100787.88;5056864;28;45430;-67
2022/01/07 08:16:23;;;;;;;;;9.25;7.75;;;;;5.65;92.79;100794.84;5056494;28;45418;-63
2022/01/07 08:18:53;;;;;;;;;8.75;6.75;;;;;5.58;93.41;100777.56;5056431;28;46104;-64
2022/01/07 08:21:20;;;;;;;;;6.00;5.75;;;;;5.61;93.55;100798.38;5056980;28;45424;-65
2022/01/07 08:23:46;;;;;;;;;5.25;5.25;;;;;5.59;93.46;100796.66;5056950;28;45388;-64
2022/01/07 08:26:14;;;;;;;;;4.75;4.75;;;;;5.25;93.68;100753.69;5057349;28;45521;-65
2022/01/07 08:28:46;;;;;;;;;11.50;6.00;;;;;5.54;93.82;100807.19;5057002;28;46000;-64
2022/01/07 08:36:27;;;;;;;;;4.00;4.00;;;;;5.55;93.71;100798.47;5057063;28;45471;-67
2022/01/07 08:38:53;;;;;;;;;6.25;6.00;;;;;5.57;93.43;100788.88;5056525;28;45351;-66
2022/01/07 08:41:25;;;;;;;;;6.25;3.25;;;;;5.57;93.36;100796.69;5039138;28;45301;-66
2022/01/07 08:43:51;;;;;;;;;6.00;5.00;;;;;5.58;92.98;100801.03;5057473;28;45387;-68
2022/01/07 08:46:16;;;;;;;;;2.75;2.50;;;;;5.58;92.41;100790.59;5059893;28;45497;-69
2022/01/07 08:48:43;;;;;;;;;3.00;3.00;;;;;5.57;92.87;100791.50;5058737;28;45379;-67
2022/01/07 08:51:09;;;;;;;;;3.00;2.25;;;;;5.54;93.79;100788.94;5057332;28;45554;-69
2022/01/07 08:53:35;;;;;;;;;4.00;4.00;;;;;5.55;92.86;100777.59;5057101;28;45311;-68
2022/01/07 08:56:01;;;;;;;;;5.00;4.25;;;;;5.55;93.46;100780.22;5056109;28;45335;-69
2022/01/07 08:58:26;;;;;;;;;4.75;3.50;;;;;5.57;93.42;100773.22;5056320;28;46133;-67
2022/01/07 09:00:52;;;;;;;;;5.25;3.25;;;;;5.58;93.54;100755.78;5056103;28;45327;-68
2022/01/07 09:03:18;;;;;;;;;3.25;3.25;;;;;5.55;93.90;100734.09;5056260;28;45324;-68
2022/01/07 09:05:43;;;;;;;;;4.75;1.75;;;;;5.58;93.50;100746.25;5055019;28;45501;-69
2022/01/07 09:08:11;;;;;;;;;4.00;4.00;;;;;5.60;93.65;100723.59;5056444;28;46266;-68
2022/01/07 09:10:38;;;;;;;;;4.00;4.00;;;;;5.66;94.35;100700.00;5056159;28;45348;-67
2022/01/07 09:13:05;;;;;;;;;2.00;2.00;;;;;5.66;93.09;100741.75;5056897;28;45450;-69
2022/01/07 09:15:32;;;;;;;;;1.75;1.75;;;;;5.69;92.89;100759.09;5038697;28;45618;-68
2022/01/07 09:17:57;;;;;;;;;3.25;2.00;;;;;5.68;92.32;100759.97;5056068;28;46939;-67
2022/01/07 09:20:23;;;;;;;;;6.00;3.00;;;;;5.73;93.19;100765.97;5056202;28;45338;-71
2022/01/07 09:22:49;;;;;;;;;4.50;4.00;;;;;5.76;93.17;100775.53;5055987;28;45443;-70
2022/01/07 09:25:15;;;;;;;;;5.00;4.00;;;;;5.83;92.74;100785.84;5057596;28;45413;-67
2022/01/07 09:27:42;;;;;;;;;3.75;3.75;;;;;5.89;93.26;100779.63;5037914;28;47404;-67
2022/01/07 09:30:10;;;;;;;;;9.50;5.75;;;;;5.74;92.69;100748.59;5057002;28;45371;-66
2022/01/07 09:32:35;;;;;;;;;5.75;5.75;;;;;6.01;92.61;100786.44;5041901;28;45429;-67
2022/01/07 09:35:01;;;;;;;;;3.00;2.00;;;;;5.98;91.73;100771.63;5057221;28;45603;-66
2022/01/07 09:37:26;;;;;;;;;3.50;2.00;;;;;6.01;90.87;100776.00;5057392;28;45348;-67
2022/01/07 09:39:52;;;;;;;;;4.75;3.25;;;;;5.94;90.99;100787.41;5048788;28;45450;-66
2022/01/07 09:42:17;;;;;;;;;4.00;3.75;;;;;5.88;90.20;100784.91;5055826;28;45904;-68
2022/01/07 09:44:43;;;;;;;;;1.25;1.25;;;;;5.83;90.74;100784.97;5063709;28;45554;-71
2022/01/07 09:47:11;;;;;;;;;5.00;3.00;;;;;5.78;90.24;100782.41;5081353;27;45840;-70
2022/01/07 09:49:38;;;;;;;;;3.50;3.50;;;;;5.70;91.39;100763.41;5075334;27;45350;-68
2022/01/07 09:52:04;;;;;;;;;6.00;4.50;;;;;5.81;91.49;100784.13;5053637;28;45640;-69
2022/01/07 09:54:32;;;;;;;;;4.25;4.00;;;;;5.81;91.16;100784.13;5052003;28;45445;-67
2022/01/07 09:56:58;;;;;;;;;5.25;3.75;;;;;5.81;90.94;100778.91;5054060;28;45558;-67
2022/01/07 09:59:23;;;;;;;;;4.50;4.00;;;;;5.76;91.36;100771.16;5053247;28;45408;-68
2022/01/07 10:02:02;;;;;;;;;3.50;3.00;;;;;5.78;91.39;100773.75;5054574;28;45430;-68
2022/01/07 10:04:33;;;;;;;;;3.00;3.00;;;;;5.76;90.70;100778.13;5056209;28;45321;-67
2022/01/07 10:07:20;;;;;;;;;5.50;3.00;;;;;5.78;91.08;100773.75;5058603;28;45375;-72
2022/01/07 10:10:14;;;;;;;;;3.50;3.50;;;;;5.82;91.18;100778.03;5059504;28;45385;-68
2022/01/07 10:12:51;;;;;;;;;6.75;3.00;;;;;5.91;91.32;100775.25;5061689;28;45307;-70
2022/01/07 10:15:19;;;;;;;;;5.00;5.00;;;;;6.04;91.78;100762.00;5063070;28;45460;-69
2022/01/07 10:18:05;;;;;;;;;5.00;5.00;;;;;6.30;91.69;100764.13;5059257;28;46531;-71
2022/01/07 10:20:37;;;;;;;;;4.50;3.25;;;;;6.50;91.04;100770.72;5058575;28;45498;-70
2022/01/07 10:23:05;;;;;;;;;4.00;4.00;;;;;6.62;89.74;100777.44;5058710;28;45365;-72
2022/01/07 10:25:33;;;;;;;;;3.25;3.25;;;;;6.71;89.50;100756.34;5062865;28;45313;-67
2022/01/07 10:28:10;;;;;;;;;6.50;3.75;;;;;6.70;88.00;100752.84;5059701;28;46680;-66
2022/01/07 10:30:44;;;;;;;;;4.00;3.50;;;;;6.66;88.28;100751.19;5057746;28;45324;-68
2022/01/07 10:33:41;;;;;;;;;7.00;4.00;;;;;6.62;88.22;100761.75;5053058;28;45484;-70
2022/01/07 10:36:06;;;;;;;;;3.00;3.00;;;;;6.54;88.14;100752.34;5039892;28;45652;-68
2022/01/07 10:38:34;;;;;;;;;5.00;4.00;;;;;6.51;87.86;100747.16;5057726;28;45359;-68
2022/01/07 10:41:00;;;;;;;;;4.25;4.00;;;;;6.38;88.11;100727.41;5059463;28;45348;-67
2022/01/07 10:43:35;;;;;;;;;4.00;3.00;;;;;6.45;87.08;100734.22;5060269;28;45286;-69
2022/01/07 10:46:19;;;;;;;;;4.75;4.75;;;;;6.48;87.61;100731.56;5059183;28;45555;-67
2022/01/07 10:48:47;;;;;;;;;8.25;6.25;;;;;6.54;87.90;100733.16;5057658;28;47082;-68
2022/01/07 10:51:15;;;;;;;;;3.75;3.75;;;;;6.62;88.67;100727.78;5058079;28;45427;-69
2022/01/07 10:53:47;;;;;;;;;2.50;1.00;;;;;6.71;88.30;100728.44;5057806;28;45278;-67
2022/01/07 10:56:17;;;;;;;;;2.75;2.75;;;;;6.82;87.20;100732.56;5057723;28;45351;-68
2022/01/07 10:58:42;;;;;;;;;8.25;5.00;;;;;6.91;86.58;100735.00;5055660;28;47222;-67
2022/01/07 11:01:28;;;;;;;;;2.25;1.00;;;;;7.09;87.81;100735.47;5057229;28;45441;-68
2022/01/07 11:03:57;;;;;;;;;6.50;3.00;;;;;7.28;85.78;100747.22;5006493;28;45315;-67
2022/01/07 11:06:25;;;;;;;;;5.75;2.00;;;;;7.40;84.85;100735.56;5058369;28;45438;-67
2022/01/07 11:08:54;;;;;;;;;4.00;3.00;;;;;7.48;84.53;100751.09;5034303;28;46208;-67
2022/01/07 11:11:21;;;;;;;;;7.25;3.00;;;;;7.58;84.26;100744.75;5059450;28;45500;-68
2022/01/07 11:13:47;;;;;;;;;2.00;2.00;;;;;7.58;82.83;100731.66;5060109;28;45448;-68
2022/01/07 11:16:17;;;;;;;;;3.50;1.50;;;;;7.62;82.11;100735.06;5045390;28;45708;-68
2022/01/07 11:18:44;;;;;;;;;7.25;5.75;;;;;7.65;82.11;100729.75;5077680;27;45342;-68
2022/01/07 11:21:11;;;;;;;;;1.00;1.00;;;;;7.70;80.88;100713.91;5077247;27;46257;-69
2022/01/07 11:23:38;;;;;;;;;1.00;1.00;;;;;7.74;80.09;100721.66;5078139;27;45668;-71
2022/01/07 11:26:04;;;;;;;;;4.00;4.00;;;;;7.77;80.65;100720.69;5040258;28;45502;-70
2022/01/07 11:28:31;;;;;;;;;3.00;3.00;;;;;7.75;80.75;100714.66;5056128;28;46343;-69
2022/01/07 11:31:12;;;;;;;;;2.00;2.00;;;;;7.78;80.86;100721.59;5037407;28;45522;-67
2022/01/07 11:33:37;;;;;;;;;2.25;2.25;;;;;7.69;80.36;100725.28;5056096;28;45531;-71
2022/01/07 11:36:03;;;;;;;;;6.50;4.00;;;;;7.63;80.05;100735.91;5060228;28;45374;-70